createdAt,value
2018-11-14T00:00:51.183Z,0
2018-11-14T00:01:51.134Z,0
2018-11-14T00:02:50.896Z,0
2018-11-14T00:03:50.877Z,0
2018-11-14T00:04:51.103Z,0
2018-11-14T00:05:50.827Z,0
2018-11-14T00:06:50.854Z,0
2018-11-14T00:07:51.079Z,0
2018-11-14T00:08:50.843Z,0
2018-11-14T00:09:51.226Z,0
2018-11-14T00:10:51.062Z,0
2018-11-14T00:11:50.495Z,0
2018-11-14T00:12:51.041Z,0
2018-11-14T00:13:51.035Z,0
2018-11-14T00:14:51.031Z,0
2018-11-14T00:15:50.465Z,0
2018-11-14T00:16:50.740Z,0
2018-11-14T00:17:50.677Z,0
2018-11-14T00:18:50.932Z,0
2018-11-14T00:19:50.671Z,0
2018-11-14T00:20:50.952Z,0
2018-11-14T00:21:51.501Z,0
2018-11-14T00:22:50.392Z,0
2018-11-14T00:23:50.383Z,0
2018-11-14T00:24:50.967Z,0
2018-11-14T00:25:50.895Z,0
2018-11-14T00:26:51.754Z,0
2018-11-14T00:27:51.157Z,0
2018-11-14T00:28:50.586Z,0
2018-11-14T00:29:50.287Z,0
2018-11-14T00:30:50.576Z,0
2018-11-14T00:31:50.048Z,0
2018-11-14T00:32:50.790Z,0
2018-11-14T00:33:50.297Z,0
2018-11-14T00:34:50.777Z,0
2018-11-14T00:35:52.042Z,0
2018-11-14T00:36:50.486Z,0
2018-11-14T00:37:50.758Z,0
2018-11-14T00:38:50.186Z,0
2018-11-14T00:39:50.439Z,0
2018-11-14T00:40:49.896Z,0
2018-11-14T00:41:50.695Z,0
2018-11-14T00:42:50.652Z,0
2018-11-14T00:43:50.680Z,0
2018-11-14T00:44:50.365Z,0
2018-11-14T00:45:50.390Z,0
2018-11-14T00:46:50.573Z,0
2018-11-14T00:47:50.603Z,0
2018-11-14T00:48:50.316Z,0
2018-11-14T00:49:50.597Z,0
2018-11-14T00:50:50.567Z,0
2018-11-14T00:51:50.558Z,0
2018-11-14T00:52:50.523Z,0
2018-11-14T00:53:50.555Z,0
2018-11-14T00:54:50.533Z,0
2018-11-14T00:55:50.251Z,0
2018-11-14T00:56:49.952Z,0
2018-11-14T00:57:49.989Z,0
2018-11-14T00:58:50.192Z,0
2018-11-14T00:59:50.250Z,0
2018-11-14T01:00:50.429Z,0
2018-11-14T01:01:50.172Z,0
2018-11-14T01:02:49.634Z,0
2018-11-14T01:03:49.898Z,0
2018-11-14T01:04:49.872Z,0
2018-11-14T01:05:49.894Z,0
2018-11-14T01:06:50.128Z,0
2018-11-14T01:07:50.611Z,0
2018-11-14T01:08:50.084Z,0
2018-11-14T01:09:50.065Z,0
2018-11-14T01:10:50.333Z,0
2018-11-14T01:11:50.308Z,0
2018-11-14T01:12:50.079Z,0
2018-11-14T01:13:50.019Z,0
2018-11-14T01:14:50.290Z,0
2018-11-14T01:15:49.727Z,0
2018-11-14T01:16:50.009Z,0
2018-11-14T01:17:50.213Z,0
2018-11-14T01:18:50.432Z,0
2018-11-14T01:19:50.210Z,0
2018-11-14T01:20:49.938Z,0
2018-11-14T01:21:50.256Z,0
2018-11-14T01:22:50.197Z,0
2018-11-14T01:23:50.174Z,0
2018-11-14T01:24:50.143Z,0
2018-11-14T01:25:49.859Z,0
2018-11-14T01:26:50.149Z,0
2018-11-14T01:27:50.112Z,0
2018-11-14T01:28:50.141Z,0
2018-11-14T01:29:50.068Z,0
2018-11-14T01:30:50.106Z,0
2018-11-14T01:31:50.037Z,0
2018-11-14T01:32:50.094Z,0
2018-11-14T01:33:50.020Z,0
2018-11-14T01:34:50.070Z,0
2018-11-14T01:35:50.361Z,0
2018-11-14T01:36:49.767Z,0
2018-11-14T01:37:49.980Z,0
2018-11-14T01:38:49.966Z,0
2018-11-14T01:39:49.454Z,0
2018-11-14T01:40:49.972Z,0
2018-11-14T01:41:49.708Z,0
2018-11-14T01:42:49.916Z,0
2018-11-14T01:43:49.918Z,0
2018-11-14T01:44:49.921Z,0
2018-11-14T01:45:49.864Z,0
2018-11-14T01:46:49.894Z,0
2018-11-14T01:47:49.841Z,0
2018-11-14T01:48:49.870Z,0
2018-11-14T01:49:49.569Z,0
2018-11-14T01:50:49.874Z,0
2018-11-14T01:51:49.820Z,0
2018-11-14T01:52:49.824Z,0
2018-11-14T01:53:49.263Z,0
2018-11-14T01:54:49.770Z,0
2018-11-14T01:55:49.517Z,0
2018-11-14T01:56:49.780Z,0
2018-11-14T01:57:49.733Z,0
2018-11-14T01:58:49.745Z,0
2018-11-14T01:59:49.214Z,0
2018-11-14T02:00:49.221Z,0
2018-11-14T02:01:49.164Z,0
2018-11-14T02:02:49.443Z,0
2018-11-14T02:03:49.135Z,0
2018-11-14T02:04:49.672Z,0
2018-11-14T02:05:49.620Z,0
2018-11-14T02:06:49.665Z,0
2018-11-14T02:07:49.620Z,0
2018-11-14T02:08:49.117Z,0
2018-11-14T02:09:49.575Z,0
2018-11-14T02:10:49.342Z,0
2018-11-14T02:11:49.575Z,0
2018-11-14T02:12:49.291Z,0
2018-11-14T02:13:49.524Z,0
2018-11-14T02:14:49.548Z,0
2018-11-14T02:15:49.274Z,0
2018-11-14T02:16:49.547Z,0
2018-11-14T02:17:49.224Z,0
2018-11-14T02:18:49.501Z,0
2018-11-14T02:19:49.442Z,0
2018-11-14T02:20:49.216Z,0
2018-11-14T02:21:49.424Z,0
2018-11-14T02:22:49.485Z,0
2018-11-14T02:23:49.167Z,0
2018-11-14T02:24:49.429Z,0
2018-11-14T02:25:49.667Z,0
2018-11-14T02:26:49.376Z,0
2018-11-14T02:27:49.128Z,0
2018-11-14T02:28:49.381Z,0
2018-11-14T02:29:49.374Z,0
2018-11-14T02:30:49.081Z,0
2018-11-14T02:31:49.066Z,0
2018-11-14T02:32:49.046Z,0
2018-11-14T02:33:49.332Z,0
2018-11-14T02:34:49.278Z,0
2018-11-14T02:35:49.027Z,0
2018-11-14T02:36:49.032Z,0
2018-11-14T02:37:49.342Z,0
2018-11-14T02:38:49.274Z,0
2018-11-14T02:39:48.972Z,0
2018-11-14T02:40:49.233Z,0
2018-11-14T02:41:49.167Z,0
2018-11-14T02:42:49.181Z,0
2018-11-14T02:43:49.171Z,0
2018-11-14T02:44:48.922Z,0
2018-11-14T02:45:48.921Z,0
2018-11-14T02:46:48.877Z,0
2018-11-14T02:47:49.124Z,0
2018-11-14T02:48:49.090Z,0
2018-11-14T02:49:48.870Z,0
2018-11-14T02:50:48.818Z,0
2018-11-14T02:51:48.925Z,0
2018-11-14T02:52:49.056Z,0
2018-11-14T02:53:49.078Z,0
2018-11-14T02:54:48.505Z,0
2018-11-14T02:55:49.052Z,0
2018-11-14T02:56:48.996Z,0
2018-11-14T02:57:48.784Z,0
2018-11-14T02:58:49.050Z,0
2018-11-14T02:59:48.982Z,0
2018-11-14T03:00:48.947Z,0
2018-11-14T03:01:48.469Z,0
2018-11-14T03:02:48.946Z,0
2018-11-14T03:03:48.922Z,0
2018-11-14T03:04:48.636Z,0
2018-11-14T03:05:48.930Z,0
2018-11-14T03:06:48.877Z,0
2018-11-14T03:07:48.942Z,0
2018-11-14T03:08:48.852Z,0
2018-11-14T03:09:48.877Z,0
2018-11-14T03:10:48.806Z,0
2018-11-14T03:11:49.080Z,0
2018-11-14T03:12:48.796Z,0
2018-11-14T03:13:48.825Z,0
2018-11-14T03:14:48.540Z,0
2018-11-14T03:15:48.777Z,0
2018-11-14T03:16:48.745Z,0
2018-11-14T03:17:48.732Z,0
2018-11-14T03:18:48.490Z,0
2018-11-14T03:19:48.744Z,0
2018-11-14T03:20:48.737Z,0
2018-11-14T03:21:48.171Z,0
2018-11-14T03:22:48.464Z,0
2018-11-14T03:23:48.135Z,0
2018-11-14T03:24:48.426Z,0
2018-11-14T03:25:48.127Z,0
2018-11-14T03:26:48.646Z,0
2018-11-14T03:27:48.620Z,0
2018-11-14T03:28:48.086Z,0
2018-11-14T03:29:48.368Z,0
2018-11-14T03:30:48.350Z,0
2018-11-14T03:31:48.589Z,0
2018-11-14T03:32:48.579Z,0
2018-11-14T03:33:48.545Z,0
2018-11-14T03:34:48.285Z,0
2018-11-14T03:35:48.009Z,0
2018-11-14T03:36:48.555Z,0
2018-11-14T03:37:47.965Z,0
2018-11-14T03:38:48.487Z,0
2018-11-14T03:39:48.473Z,0
2018-11-14T03:40:48.443Z,0
2018-11-14T03:41:48.487Z,0
2018-11-14T03:42:48.660Z,0
2018-11-14T03:43:48.163Z,0
2018-11-14T03:44:48.396Z,0
2018-11-14T03:45:48.427Z,0
2018-11-14T03:46:48.400Z,0
2018-11-14T03:47:48.406Z,0
2018-11-14T03:48:47.828Z,0
2018-11-14T03:49:48.322Z,0
2018-11-14T03:50:48.339Z,0
2018-11-14T03:51:48.315Z,0
2018-11-14T03:52:48.300Z,0
2018-11-14T03:53:48.321Z,0
2018-11-14T03:54:48.011Z,0
2018-11-14T03:55:47.780Z,0
2018-11-14T03:56:48.228Z,0
2018-11-14T03:57:48.015Z,0
2018-11-14T03:58:47.947Z,0
2018-11-14T03:59:47.962Z,0
2018-11-14T04:00:48.187Z,0
2018-11-14T04:01:47.963Z,0
2018-11-14T04:02:48.191Z,0
2018-11-14T04:03:48.171Z,0
2018-11-14T04:04:47.880Z,0
2018-11-14T04:05:47.999Z,0
2018-11-14T04:06:47.630Z,0
2018-11-14T04:07:48.122Z,0
2018-11-14T04:08:47.879Z,0
2018-11-14T04:09:48.084Z,0
2018-11-14T04:10:47.837Z,0
2018-11-14T04:11:48.043Z,0
2018-11-14T04:12:48.077Z,0
2018-11-14T04:13:48.008Z,0
2018-11-14T04:14:48.304Z,0
2018-11-14T04:15:47.759Z,0
2018-11-14T04:16:48.022Z,0
2018-11-14T04:17:47.799Z,0
2018-11-14T04:18:47.729Z,0
2018-11-14T04:19:47.727Z,0
2018-11-14T04:20:47.692Z,0
2018-11-14T04:21:47.916Z,0
2018-11-14T04:22:47.994Z,0
2018-11-14T04:23:47.908Z,0
2018-11-14T04:24:47.938Z,0
2018-11-14T04:25:47.853Z,0
2018-11-14T04:26:47.378Z,0
2018-11-14T04:27:47.585Z,0
2018-11-14T04:28:47.607Z,0
2018-11-14T04:29:47.553Z,0
2018-11-14T04:30:47.591Z,0
2018-11-14T04:31:47.806Z,0
2018-11-14T04:32:47.813Z,0
2018-11-14T04:33:47.753Z,0
2018-11-14T04:34:47.753Z,0
2018-11-14T04:35:47.753Z,0
2018-11-14T04:36:47.776Z,0
2018-11-14T04:37:47.509Z,0
2018-11-14T04:38:47.702Z,0
2018-11-14T04:39:47.195Z,0
2018-11-14T04:40:47.409Z,0
2018-11-14T04:41:47.699Z,0
2018-11-14T04:42:47.662Z,0
2018-11-14T04:43:47.391Z,0
2018-11-14T04:44:47.664Z,0
2018-11-14T04:45:47.850Z,0
2018-11-14T04:46:47.387Z,0
2018-11-14T04:47:47.681Z,0
2018-11-14T04:48:47.617Z,0
2018-11-14T04:49:47.048Z,0
2018-11-14T04:50:47.307Z,0
2018-11-14T04:51:47.560Z,0
2018-11-14T04:52:47.548Z,0
2018-11-14T04:53:47.545Z,0
2018-11-14T04:54:47.240Z,0
2018-11-14T04:55:47.499Z,0
2018-11-14T04:56:47.454Z,0
2018-11-14T04:57:47.554Z,0
2018-11-14T04:58:46.934Z,0
2018-11-14T04:59:46.963Z,0
2018-11-14T05:00:47.413Z,0
2018-11-14T05:01:47.189Z,0
2018-11-14T05:02:47.591Z,0
2018-11-14T05:03:47.138Z,0
2018-11-14T05:04:47.123Z,0
2018-11-14T05:05:46.878Z,0
2018-11-14T05:06:47.370Z,0
2018-11-14T05:07:47.084Z,0
2018-11-14T05:08:47.062Z,0
2018-11-14T05:09:47.336Z,0
2018-11-14T05:10:47.042Z,0
2018-11-14T05:11:47.284Z,0
2018-11-14T05:12:47.377Z,0
2018-11-14T05:13:47.299Z,0
2018-11-14T05:14:47.247Z,0
2018-11-14T05:15:47.011Z,0
2018-11-14T05:16:47.204Z,0
2018-11-14T05:17:46.974Z,0
2018-11-14T05:18:46.916Z,0
2018-11-14T05:19:46.677Z,0
2018-11-14T05:20:47.157Z,0
2018-11-14T05:21:46.661Z,0
2018-11-14T05:22:47.133Z,0
2018-11-14T05:23:46.885Z,0
2018-11-14T05:24:47.845Z,0
2018-11-14T05:25:46.872Z,0
2018-11-14T05:26:46.312Z,0
2018-11-14T05:27:46.821Z,0
2018-11-14T05:28:47.036Z,0
2018-11-14T05:29:47.081Z,0
2018-11-14T05:30:46.767Z,0
2018-11-14T05:31:47.246Z,0
2018-11-14T05:32:47.002Z,0
2018-11-14T05:33:46.508Z,0
2018-11-14T05:34:46.986Z,0
2018-11-14T05:35:46.713Z,0
2018-11-14T05:36:46.717Z,0
2018-11-14T05:37:46.662Z,0
2018-11-14T05:38:46.935Z,0
2018-11-14T05:39:47.616Z,0
2018-11-14T05:40:46.916Z,0
2018-11-14T05:41:46.659Z,0
2018-11-14T05:42:46.874Z,0
2018-11-14T05:43:46.873Z,0
2018-11-14T05:44:46.832Z,0
2018-11-14T05:45:47.173Z,0
2018-11-14T05:46:46.810Z,0
2018-11-14T05:47:47.100Z,0
2018-11-14T05:48:46.786Z,0
2018-11-14T05:49:46.819Z,0
2018-11-14T05:50:46.742Z,0
2018-11-14T05:51:46.249Z,0
2018-11-14T05:52:46.478Z,0
2018-11-14T05:53:46.555Z,0
2018-11-14T05:54:46.626Z,0
2018-11-14T05:55:46.712Z,0
2018-11-14T05:56:46.422Z,0
2018-11-14T05:57:46.156Z,0
2018-11-14T05:58:46.673Z,0
2018-11-14T05:59:46.661Z,0
2018-11-14T06:00:46.625Z,0
2018-11-14T06:01:46.395Z,0
2018-11-14T06:02:46.622Z,0
2018-11-14T06:03:46.630Z,0
2018-11-14T06:04:46.319Z,0
2018-11-14T06:05:46.339Z,0
2018-11-14T06:06:46.023Z,0
2018-11-14T06:07:46.899Z,0
2018-11-14T06:08:46.525Z,0
2018-11-14T06:09:46.556Z,0
2018-11-14T06:10:46.264Z,0
2018-11-14T06:11:46.236Z,0
2018-11-14T06:12:46.467Z,0
2018-11-14T06:13:46.446Z,0
2018-11-14T06:14:46.465Z,5
2018-11-14T06:15:46.188Z,5
2018-11-14T06:16:46.460Z,5
2018-11-14T06:17:46.136Z,5
2018-11-14T06:18:46.402Z,5
2018-11-14T06:19:46.358Z,5
2018-11-14T06:20:46.403Z,5
2018-11-14T06:21:46.468Z,10
2018-11-14T06:22:46.377Z,10
2018-11-14T06:23:46.553Z,10
2018-11-14T06:24:46.079Z,10
2018-11-14T06:25:46.058Z,15
2018-11-14T06:26:46.313Z,15
2018-11-14T06:27:46.029Z,15
2018-11-14T06:28:46.248Z,15
2018-11-14T06:29:46.542Z,20
2018-11-14T06:30:46.272Z,20
2018-11-14T06:31:45.971Z,20
2018-11-14T06:32:46.251Z,25
2018-11-14T06:33:45.926Z,25
2018-11-14T06:34:46.197Z,25
2018-11-14T06:35:45.898Z,30
2018-11-14T06:36:45.926Z,30
2018-11-14T06:37:45.871Z,30
2018-11-14T06:38:45.908Z,35
2018-11-14T06:39:45.865Z,35
2018-11-14T06:40:46.127Z,35
2018-11-14T06:41:46.571Z,35
2018-11-14T06:42:46.066Z,40
2018-11-14T06:43:46.067Z,40
2018-11-14T06:44:46.084Z,40
2018-11-14T06:45:45.552Z,45
2018-11-14T06:46:45.760Z,45
2018-11-14T06:47:46.016Z,45
2018-11-14T06:48:45.727Z,45
2018-11-14T06:49:45.757Z,50
2018-11-14T06:50:45.717Z,50
2018-11-14T06:51:45.454Z,50
2018-11-14T06:52:45.971Z,50
2018-11-14T06:53:45.413Z,55
2018-11-14T06:54:45.706Z,55
2018-11-14T06:55:45.713Z,60
2018-11-14T06:56:45.666Z,65
2018-11-14T06:57:45.604Z,70
2018-11-14T06:58:46.021Z,70
2018-11-14T06:59:45.633Z,75
2018-11-14T07:00:46.163Z,75
2018-11-14T07:01:45.606Z,75
2018-11-14T07:02:47.744Z,80
2018-11-14T07:03:45.562Z,85
2018-11-14T07:04:45.263Z,85
2018-11-14T07:05:46.466Z,85
2018-11-14T07:06:45.775Z,85
2018-11-14T07:07:45.530Z,80
2018-11-14T07:08:45.479Z,80
2018-11-14T07:09:45.770Z,80
2018-11-14T07:10:45.755Z,80
2018-11-14T07:11:45.464Z,80
2018-11-14T07:12:44.917Z,85
2018-11-14T07:13:45.469Z,90
2018-11-14T07:14:45.683Z,90
2018-11-14T07:15:45.659Z,90
2018-11-14T07:16:45.383Z,95
2018-11-14T07:17:45.607Z,95
2018-11-14T07:18:45.354Z,95
2018-11-14T07:19:45.348Z,100
2018-11-14T07:20:45.825Z,100
2018-11-14T07:21:45.352Z,105
2018-11-14T07:22:45.565Z,110
2018-11-14T07:23:45.603Z,110
2018-11-14T07:24:45.689Z,115
2018-11-14T07:25:45.313Z,115
2018-11-14T07:26:44.991Z,120
2018-11-14T07:27:45.514Z,120
2018-11-14T07:28:45.485Z,120
2018-11-14T07:29:45.523Z,120
2018-11-14T07:30:45.491Z,125
2018-11-14T07:31:45.464Z,125
2018-11-14T07:32:45.441Z,125
2018-11-14T07:33:45.417Z,125
2018-11-14T07:34:44.935Z,125
2018-11-14T07:35:45.433Z,125
2018-11-14T07:36:45.449Z,125
2018-11-14T07:37:45.539Z,125
2018-11-14T07:38:45.129Z,125
2018-11-14T07:39:45.093Z,125
2018-11-14T07:40:44.853Z,125
2018-11-14T07:41:45.327Z,130
2018-11-14T07:42:44.829Z,130
2018-11-14T07:43:46.206Z,130
2018-11-14T07:44:45.042Z,135
2018-11-14T07:45:45.331Z,135
2018-11-14T07:46:45.304Z,135
2018-11-14T07:47:45.022Z,135
2018-11-14T07:48:45.305Z,140
2018-11-14T07:49:45.221Z,140
2018-11-14T07:50:45.247Z,135
2018-11-14T07:51:45.226Z,135
2018-11-14T07:52:44.983Z,140
2018-11-14T07:53:45.213Z,140
2018-11-14T07:54:45.669Z,140
2018-11-14T07:55:44.660Z,145
2018-11-14T07:56:44.928Z,145
2018-11-14T07:57:44.625Z,145
2018-11-14T07:58:44.666Z,145
2018-11-14T07:59:45.151Z,145
2018-11-14T08:00:44.888Z,140
2018-11-14T08:01:45.087Z,140
2018-11-14T08:02:44.836Z,140
2018-11-14T08:03:44.834Z,135
2018-11-14T08:04:44.835Z,130
2018-11-14T08:05:45.091Z,130
2018-11-14T08:06:44.801Z,125
2018-11-14T08:07:45.048Z,125
2018-11-14T08:08:45.052Z,125
2018-11-14T08:09:44.996Z,125
2018-11-14T08:10:44.510Z,125
2018-11-14T08:11:44.967Z,125
2018-11-14T08:12:45.004Z,125
2018-11-14T08:13:44.948Z,125
2018-11-14T08:14:44.744Z,125
2018-11-14T08:15:44.953Z,130
2018-11-14T08:16:44.504Z,130
2018-11-14T08:17:44.687Z,130
2018-11-14T08:18:45.195Z,130
2018-11-14T08:19:44.651Z,130
2018-11-14T08:20:44.657Z,130
2018-11-14T08:21:44.913Z,130
2018-11-14T08:22:44.613Z,130
2018-11-14T08:23:44.853Z,130
2018-11-14T08:24:44.819Z,135
2018-11-14T08:25:44.613Z,135
2018-11-14T08:26:44.827Z,135
2018-11-14T08:27:44.854Z,135
2018-11-14T08:28:44.791Z,135
2018-11-14T08:29:44.824Z,135
2018-11-14T08:30:44.302Z,135
2018-11-14T08:31:44.518Z,135
2018-11-14T08:32:44.495Z,135
2018-11-14T08:33:44.801Z,140
2018-11-14T08:34:44.746Z,140
2018-11-14T08:35:44.726Z,140
2018-11-14T08:36:44.741Z,140
2018-11-14T08:37:44.730Z,140
2018-11-14T08:38:44.697Z,140
2018-11-14T08:39:44.430Z,140
2018-11-14T08:40:44.651Z,145
2018-11-14T08:41:44.437Z,145
2018-11-14T08:42:44.636Z,145
2018-11-14T08:43:44.675Z,145
2018-11-14T08:44:44.668Z,140
2018-11-14T08:45:44.643Z,140
2018-11-14T08:46:44.609Z,140
2018-11-14T08:47:44.591Z,135
2018-11-14T08:48:44.630Z,125
2018-11-14T08:49:44.287Z,125
2018-11-14T08:50:44.548Z,120
2018-11-14T08:51:44.550Z,125
2018-11-14T08:52:44.555Z,130
2018-11-14T08:53:44.562Z,140
2018-11-14T08:54:44.765Z,145
2018-11-14T08:55:44.512Z,145
2018-11-14T08:56:44.230Z,145
2018-11-14T08:57:44.567Z,145
2018-11-14T08:58:44.212Z,145
2018-11-14T08:59:44.205Z,155
2018-11-14T09:00:44.227Z,150
2018-11-14T09:01:44.162Z,145
2018-11-14T09:02:43.950Z,140
2018-11-14T09:03:44.521Z,135
2018-11-14T09:04:44.177Z,130
2018-11-14T09:05:44.381Z,130
2018-11-14T09:06:44.379Z,135
2018-11-14T09:07:44.075Z,135
2018-11-14T09:08:44.388Z,145
2018-11-14T09:09:44.397Z,145
2018-11-14T09:10:44.346Z,150
2018-11-14T09:11:44.079Z,155
2018-11-14T09:12:44.676Z,150
2018-11-14T09:13:44.359Z,150
2018-11-14T09:14:44.958Z,160
2018-11-14T09:15:44.332Z,160
2018-11-14T09:16:44.015Z,165
2018-11-14T09:17:44.298Z,170
2018-11-14T09:18:44.404Z,170
2018-11-14T09:19:44.001Z,175
2018-11-14T09:20:44.226Z,175
2018-11-14T09:21:44.259Z,180
2018-11-14T09:22:44.239Z,185
2018-11-14T09:23:44.359Z,185
2018-11-14T09:24:44.367Z,185
2018-11-14T09:25:44.218Z,185
2018-11-14T09:26:44.172Z,195
2018-11-14T09:27:44.164Z,200
2018-11-14T09:28:43.874Z,210
2018-11-14T09:29:43.660Z,220
2018-11-14T09:30:44.132Z,235
2018-11-14T09:31:44.164Z,235
2018-11-14T09:32:44.103Z,220
2018-11-14T09:33:43.618Z,225
2018-11-14T09:34:44.323Z,260
2018-11-14T09:35:43.586Z,230
2018-11-14T09:36:43.812Z,225
2018-11-14T09:37:44.105Z,220
2018-11-14T09:38:44.075Z,220
2018-11-14T09:39:44.055Z,210
2018-11-14T09:40:44.284Z,230
2018-11-14T09:41:44.207Z,210
2018-11-14T09:42:44.034Z,210
2018-11-14T09:43:44.081Z,210
2018-11-14T09:44:44.317Z,215
2018-11-14T09:45:43.966Z,210
2018-11-14T09:46:43.996Z,210
2018-11-14T09:47:43.943Z,220
2018-11-14T09:48:44.109Z,220
2018-11-14T09:49:43.678Z,215
2018-11-14T09:50:43.962Z,225
2018-11-14T09:51:43.947Z,205
2018-11-14T09:52:43.910Z,215
2018-11-14T09:53:43.947Z,215
2018-11-14T09:54:43.674Z,220
2018-11-14T09:55:43.652Z,205
2018-11-14T09:56:43.872Z,195
2018-11-14T09:57:43.860Z,200
2018-11-14T09:58:44.097Z,210
2018-11-14T09:59:43.879Z,210
2018-11-14T10:00:44.324Z,215
2018-11-14T10:01:43.817Z,205
2018-11-14T10:02:44.063Z,200
2018-11-14T10:03:43.896Z,200
2018-11-14T10:04:43.834Z,190
2018-11-14T10:05:44.073Z,190
2018-11-14T10:06:43.842Z,200
2018-11-14T10:07:43.361Z,210
2018-11-14T10:08:43.551Z,200
2018-11-14T10:09:43.496Z,220
2018-11-14T10:10:43.521Z,210
2018-11-14T10:11:43.251Z,200
2018-11-14T10:12:43.608Z,195
2018-11-14T10:13:42.999Z,200
2018-11-14T10:14:43.729Z,200
2018-11-14T10:15:44.279Z,190
2018-11-14T10:16:43.472Z,190
2018-11-14T10:17:43.432Z,195
2018-11-14T10:18:43.829Z,190
2018-11-14T10:19:43.668Z,185
2018-11-14T10:20:43.444Z,190
2018-11-14T10:21:44.081Z,195
2018-11-14T10:22:43.438Z,195
2018-11-14T10:23:43.143Z,200
2018-11-14T10:24:43.755Z,200
2018-11-14T10:25:43.356Z,200
2018-11-14T10:26:43.374Z,195
2018-11-14T10:27:43.628Z,195
2018-11-14T10:28:43.372Z,195
2018-11-14T10:29:43.328Z,200
2018-11-14T10:30:43.654Z,200
2018-11-14T10:31:44.242Z,220
2018-11-14T10:32:43.353Z,220
2018-11-14T10:33:43.293Z,210
2018-11-14T10:34:43.589Z,215
2018-11-14T10:35:43.540Z,215
2018-11-14T10:36:43.313Z,220
2018-11-14T10:37:43.271Z,230
2018-11-14T10:38:43.564Z,220
2018-11-14T10:39:43.523Z,215
2018-11-14T10:40:43.539Z,215
2018-11-14T10:41:42.981Z,205
2018-11-14T10:42:43.661Z,205
2018-11-14T10:43:42.987Z,195
2018-11-14T10:44:43.216Z,195
2018-11-14T10:45:43.203Z,195
2018-11-14T10:46:42.969Z,200
2018-11-14T10:47:43.465Z,205
2018-11-14T10:48:43.227Z,200
2018-11-14T10:49:43.415Z,210
2018-11-14T10:50:43.482Z,210
2018-11-14T10:51:43.407Z,210
2018-11-14T10:52:43.438Z,205
2018-11-14T10:53:43.142Z,200
2018-11-14T10:54:43.189Z,195
2018-11-14T10:55:43.141Z,195
2018-11-14T10:56:43.410Z,190
2018-11-14T10:57:43.350Z,190
2018-11-14T10:58:43.509Z,195
2018-11-14T10:59:43.618Z,190
2018-11-14T11:00:43.399Z,200
2018-11-14T11:01:43.380Z,190
2018-11-14T11:02:43.328Z,195
2018-11-14T11:03:43.079Z,190
2018-11-14T11:04:43.299Z,190
2018-11-14T11:05:43.349Z,195
2018-11-14T11:06:43.313Z,190
2018-11-14T11:07:43.041Z,170
2018-11-14T11:08:43.585Z,165
2018-11-14T11:09:43.266Z,170
2018-11-14T11:10:43.329Z,170
2018-11-14T11:11:43.020Z,205
2018-11-14T11:12:43.023Z,225
2018-11-14T11:13:43.172Z,205
2018-11-14T11:14:43.239Z,210
2018-11-14T11:15:43.240Z,210
2018-11-14T11:16:43.343Z,195
2018-11-14T11:17:43.000Z,190
2018-11-14T11:18:43.319Z,190
2018-11-14T11:19:42.957Z,190
2018-11-14T11:20:42.926Z,190
2018-11-14T11:21:43.228Z,200
2018-11-14T11:22:43.176Z,220
2018-11-14T11:23:43.456Z,205
2018-11-14T11:24:42.908Z,195
2018-11-14T11:25:42.938Z,190
2018-11-14T11:26:43.135Z,195
2018-11-14T11:27:43.159Z,205
2018-11-14T11:28:42.880Z,195
2018-11-14T11:29:42.911Z,190
2018-11-14T11:30:43.736Z,190
2018-11-14T11:31:43.152Z,200
2018-11-14T11:32:42.853Z,200
2018-11-14T11:33:43.139Z,195
2018-11-14T11:34:42.840Z,185
2018-11-14T11:35:42.326Z,180
2018-11-14T11:36:43.049Z,180
2018-11-14T11:37:43.104Z,200
2018-11-14T11:38:43.059Z,205
2018-11-14T11:39:42.833Z,210
2018-11-14T11:40:43.037Z,205
2018-11-14T11:41:43.083Z,210
2018-11-14T11:42:42.758Z,210
2018-11-14T11:43:42.779Z,225
2018-11-14T11:44:42.651Z,245
2018-11-14T11:45:42.798Z,225
2018-11-14T11:46:42.762Z,215
2018-11-14T11:47:42.747Z,220
2018-11-14T11:48:42.469Z,230
2018-11-14T11:49:42.457Z,225
2018-11-14T11:50:43.005Z,200
2018-11-14T11:51:42.738Z,200
2018-11-14T11:52:42.999Z,200
2018-11-14T11:53:42.692Z,215
2018-11-14T11:54:43.194Z,205
2018-11-14T11:55:42.411Z,210
2018-11-14T11:56:42.722Z,225
2018-11-14T11:57:42.644Z,215
2018-11-14T11:58:42.938Z,220
2018-11-14T11:59:43.589Z,220
2018-11-14T12:00:43.935Z,205
2018-11-14T12:01:42.971Z,195
2018-11-14T12:02:42.662Z,200
2018-11-14T12:03:42.381Z,205
2018-11-14T12:04:42.873Z,215
2018-11-14T12:05:42.825Z,220
2018-11-14T12:06:42.981Z,225
2018-11-14T12:07:42.865Z,235
2018-11-14T12:08:42.936Z,220
2018-11-14T12:09:42.568Z,215
2018-11-14T12:10:42.711Z,220
2018-11-14T12:11:42.836Z,220
2018-11-14T12:12:42.618Z,220
2018-11-14T12:13:57.901Z,225
2018-11-14T12:14:42.535Z,230
2018-11-14T12:15:42.799Z,235
2018-11-14T12:16:42.803Z,235
2018-11-14T12:17:43.005Z,235
2018-11-14T12:18:42.565Z,230
2018-11-14T12:19:42.776Z,230
2018-11-14T12:20:42.535Z,230
2018-11-14T12:21:42.485Z,225
2018-11-14T12:22:42.529Z,220
2018-11-14T12:23:42.873Z,220
2018-11-14T12:24:42.748Z,220
2018-11-14T12:25:42.765Z,210
2018-11-14T12:26:42.457Z,210
2018-11-14T12:27:42.480Z,205
2018-11-14T12:28:42.727Z,205
2018-11-14T12:29:42.741Z,205
2018-11-14T12:30:43.112Z,205
2018-11-14T12:31:42.697Z,210
2018-11-14T12:32:43.374Z,205
2018-11-14T12:33:42.192Z,210
2018-11-14T12:34:43.083Z,220
2018-11-14T12:35:43.283Z,235
2018-11-14T12:36:42.423Z,230
2018-11-14T12:37:42.382Z,220
2018-11-14T12:38:43.243Z,210
2018-11-14T12:39:42.638Z,200
2018-11-14T12:40:42.679Z,200
2018-11-14T12:41:42.620Z,205
2018-11-14T12:42:42.659Z,190
2018-11-14T12:43:42.343Z,175
2018-11-14T12:44:42.431Z,180
2018-11-14T12:45:42.084Z,210
2018-11-14T12:46:42.645Z,235
2018-11-14T12:47:42.611Z,225
2018-11-14T12:48:42.346Z,215
2018-11-14T12:49:42.570Z,210
2018-11-14T12:50:42.607Z,210
2018-11-14T12:51:42.562Z,205
2018-11-14T12:52:42.597Z,200
2018-11-14T12:53:42.535Z,185
2018-11-14T12:54:42.578Z,175
2018-11-14T12:55:42.535Z,165
2018-11-14T12:56:42.574Z,155
2018-11-14T12:57:42.510Z,150
2018-11-14T12:58:42.294Z,150
2018-11-14T12:59:42.886Z,155
2018-11-14T13:00:42.270Z,160
2018-11-14T13:01:42.229Z,145
2018-11-14T13:02:42.534Z,140
2018-11-14T13:03:42.756Z,130
2018-11-14T13:04:42.496Z,125
2018-11-14T13:05:42.206Z,125
2018-11-14T13:06:42.188Z,120
2018-11-14T13:07:42.484Z,120
2018-11-14T13:08:42.205Z,125
2018-11-14T13:09:42.489Z,135
2018-11-14T13:10:42.468Z,145
2018-11-14T13:11:42.446Z,150
2018-11-14T13:12:42.401Z,160
2018-11-14T13:13:42.445Z,170
2018-11-14T13:14:41.630Z,175
2018-11-14T13:15:42.425Z,180
2018-11-14T13:16:42.413Z,180
2018-11-14T13:17:42.133Z,180
2018-11-14T13:18:42.218Z,175
2018-11-14T13:19:42.145Z,175
2018-11-14T13:20:42.130Z,180
2018-11-14T13:21:42.100Z,185
2018-11-14T13:22:42.346Z,185
2018-11-14T13:23:42.360Z,175
2018-11-14T13:24:42.096Z,170
2018-11-14T13:25:42.367Z,165
2018-11-14T13:26:42.354Z,165
2018-11-14T13:27:42.082Z,165
2018-11-14T13:28:41.590Z,160
2018-11-14T13:29:42.330Z,160
2018-11-14T13:30:42.279Z,155
2018-11-14T13:31:42.072Z,145
2018-11-14T13:32:42.027Z,135
2018-11-14T13:33:42.301Z,135
2018-11-14T13:34:42.023Z,135
2018-11-14T13:35:42.266Z,130
2018-11-14T13:36:42.263Z,140
2018-11-14T13:37:42.023Z,160
2018-11-14T13:38:42.062Z,160
2018-11-14T13:39:41.467Z,160
2018-11-14T13:40:41.978Z,155
2018-11-14T13:41:41.981Z,145
2018-11-14T13:42:42.211Z,140
2018-11-14T13:43:41.972Z,135
2018-11-14T13:44:41.921Z,135
2018-11-14T13:45:42.220Z,145
2018-11-14T13:46:41.921Z,150
2018-11-14T13:47:42.222Z,150
2018-11-14T13:48:42.381Z,150
2018-11-14T13:49:43.043Z,140
2018-11-14T13:50:44.399Z,130
2018-11-14T13:51:42.151Z,130
2018-11-14T13:52:42.161Z,130
2018-11-14T13:53:42.163Z,130
2018-11-14T13:54:41.854Z,140
2018-11-14T13:55:42.137Z,155
2018-11-14T13:56:42.130Z,160
2018-11-14T13:57:41.894Z,150
2018-11-14T13:58:41.580Z,135
2018-11-14T13:59:41.852Z,120
2018-11-14T14:00:41.810Z,120
2018-11-14T14:01:41.848Z,115
2018-11-14T14:02:41.813Z,110
2018-11-14T14:03:42.113Z,110
2018-11-14T14:04:41.555Z,110
2018-11-14T14:05:41.815Z,105
2018-11-14T14:06:42.021Z,105
2018-11-14T14:07:41.800Z,105
2018-11-14T14:08:41.780Z,100
2018-11-14T14:09:42.076Z,100
2018-11-14T14:10:41.490Z,100
2018-11-14T14:11:41.780Z,95
2018-11-14T14:12:41.762Z,95
2018-11-14T14:13:42.032Z,90
2018-11-14T14:14:41.716Z,90